Rawlins, WY (82301)

2:33 PM MST on February 06, 2016 (GMT -0700)
Highland Towne | | Change Station
CLOSE
Current Station
Personal Weather Station
Location: Rawlins, WY
Elevation: 6831 ft
Nearby Weather Stations

Elev 6831 ft 41.82 °N, 107.22 °W | Updated 3 minutes ago

Clear
Clear
30.2 °F
Feels Like 21 °F
N
11.9
Wind Variable Wind from SSW

Today
High -- | Low -- °F
--% Chance of Precip.
Yesterday
High -- | Low -- °F
Precip. -- in
Pressure 30.35 in
Visibility 10.0 miles
Clouds Clear
Windchill 21 °F
Dew Point 19 °F
Humidity 62%
Rainfall 0.00 in
Snow Depth Not available.
7:16 AM 5:30 PM
Waning Crescent, 4% visible
METAR KRWL 062053Z AUTO 24021G32KT 10SM CLR M03/M08 A3025 RMK AO2 PK WND 22039/1958 UPE1954 SLP277 P0000 60000 T10281083 58014
Pressure 30.35 in
Visibility 10.0 miles
Clouds Clear
Windchill 21 °F
Dew Point 19 °F
Humidity 62%
Rainfall 0.00 in
Snow Depth Not available.
7:16 AM 5:30 PM
Waning Crescent, 4% visible
METAR KRWL 062053Z AUTO 24021G32KT 10SM CLR M03/M08 A3025 RMK AO2 PK WND 22039/1958 UPE1954 SLP277 P0000 60000 T10281083 58014

10-Day Weather Forecast

Almanac

Astronomy

Feb. 06, 2016 Rise Set
Actual Time
Civil Twilight
Nautical Twilight
Astronomical Twilight
Moon
Length of Visible Light
Length of Day
Tomorrow will be .
, % of the Moon is Illuminated

Today's Extremes

State Highs State Lows

Community

WunderPhotos

Upload Photos

1,891,052 photos uploaded!

WunderBlog® & News

Nearby

Air Quality

  Air Quality AQ Index Pollutant
Not available.

Snow Depth

Station Depth Elevation

Earthquake Activity

City Distance Mag. Time & Date
Minimum magnitude displayed is 2.5.

Coastal Water Temperatures

Place Temperature

Stations

Nearby Weather Stations

Station Location Temp. Windchill Dew Point Humidity Wind Precip. Elev Updated Type
                   

Watches & Warnings

There are currently no watches in effect.